createdAt,value
2023-05-14T00:00:22.351Z,7.60
2023-05-14T00:02:49.184Z,7.54
2023-05-14T00:05:16.039Z,7.49
2023-05-14T00:07:42.527Z,7.44
2023-05-14T00:10:09.495Z,7.39
2023-05-14T00:12:36.060Z,7.34
2023-05-14T00:15:02.531Z,7.30
2023-05-14T00:17:29.555Z,7.28
2023-05-14T00:19:56.327Z,7.19
2023-05-14T00:22:22.837Z,7.15
2023-05-14T00:24:49.480Z,7.14
2023-05-14T00:27:16.053Z,7.12
2023-05-14T00:29:42.528Z,7.11
2023-05-14T00:32:09.045Z,7.09
2023-05-14T00:34:36.031Z,7.10
2023-05-14T00:37:02.512Z,7.12
2023-05-14T00:39:28.958Z,7.14
2023-05-14T00:41:55.816Z,7.17
2023-05-14T00:44:22.318Z,7.15
2023-05-14T00:46:48.882Z,7.11
2023-05-14T00:49:16.214Z,7.08
2023-05-14T00:51:43.067Z,7.03
2023-05-14T00:54:09.579Z,7.00
2023-05-14T00:56:36.343Z,6.99
2023-05-14T00:59:02.906Z,6.97
2023-05-14T01:01:29.625Z,6.95
2023-05-14T01:03:58.055Z,6.93
2023-05-14T01:06:57.749Z,6.90
2023-05-14T01:09:44.618Z,6.90
2023-05-14T01:12:13.971Z,6.90
2023-05-14T01:14:55.660Z,6.88
2023-05-14T01:17:24.715Z,6.85
2023-05-14T01:19:52.082Z,6.83
2023-05-14T01:22:18.593Z,6.81
2023-05-14T01:24:45.140Z,6.78
2023-05-14T01:27:29.889Z,6.75
2023-05-14T01:30:22.601Z,6.75
2023-05-14T01:32:53.860Z,6.83
2023-05-14T01:35:26.967Z,6.92
2023-05-14T01:38:06.334Z,7.00
2023-05-14T01:40:34.054Z,7.02
2023-05-14T01:43:01.744Z,6.97
2023-05-14T01:45:28.309Z,6.89
2023-05-14T01:47:54.796Z,6.84
2023-05-14T01:50:21.510Z,6.81
2023-05-14T01:52:53.434Z,6.79
2023-05-14T01:55:20.054Z,6.75
2023-05-14T01:57:46.453Z,6.68
2023-05-14T02:00:13.250Z,6.60
2023-05-14T02:02:39.748Z,6.56
2023-05-14T02:05:07.719Z,6.54
2023-05-14T02:07:34.265Z,6.51
2023-05-14T02:10:00.820Z,6.47
2023-05-14T02:12:27.368Z,6.43
2023-05-14T02:14:53.982Z,6.30
2023-05-14T02:17:20.568Z,6.26
2023-05-14T02:19:47.059Z,6.26
2023-05-14T02:22:13.867Z,6.21
2023-05-14T02:24:41.102Z,6.19
2023-05-14T02:27:07.656Z,6.19
2023-05-14T02:29:34.095Z,6.12
2023-05-14T02:32:00.614Z,6.09
2023-05-14T02:34:27.073Z,6.00
2023-05-14T02:36:53.603Z,5.89
2023-05-14T02:39:20.169Z,5.83
2023-05-14T02:41:46.677Z,5.79
2023-05-14T02:44:13.083Z,5.76
2023-05-14T02:46:39.628Z,5.75
2023-05-14T02:49:06.117Z,5.74
2023-05-14T02:51:32.574Z,5.76
2023-05-14T02:53:59.169Z,5.83
2023-05-14T02:56:26.436Z,5.87
2023-05-14T02:58:52.930Z,5.94
2023-05-14T03:01:19.962Z,6.00
2023-05-14T03:03:47.128Z,6.01
2023-05-14T03:06:13.770Z,6.04
2023-05-14T03:08:40.304Z,6.03
2023-05-14T03:11:07.283Z,5.99
2023-05-14T03:13:33.731Z,5.97
2023-05-14T03:16:00.362Z,5.95
2023-05-14T03:18:28.305Z,5.93
2023-05-14T03:20:54.813Z,5.95
2023-05-14T03:23:21.325Z,6.00
2023-05-14T03:25:47.832Z,6.10
2023-05-14T03:28:14.345Z,6.23
2023-05-14T03:30:40.953Z,6.38
2023-05-14T03:33:07.587Z,6.48
2023-05-14T03:35:34.158Z,6.63
2023-05-14T03:38:00.817Z,6.82
2023-05-14T03:40:27.419Z,7.02
2023-05-14T03:42:53.982Z,7.24
2023-05-14T03:45:20.774Z,7.51
2023-05-14T03:47:47.275Z,7.77
2023-05-14T03:50:13.910Z,8.00
2023-05-14T03:52:40.566Z,8.18
2023-05-14T03:55:07.517Z,8.30
2023-05-14T03:57:34.065Z,8.39
2023-05-14T04:00:00.512Z,8.48
2023-05-14T04:02:27.079Z,8.56
2023-05-14T04:04:53.677Z,8.66
2023-05-14T04:07:20.186Z,8.77
2023-05-14T04:09:46.690Z,8.91
2023-05-14T04:12:13.480Z,9.02
2023-05-14T04:14:40.058Z,9.12
2023-05-14T04:17:06.517Z,9.26
2023-05-14T04:19:33.025Z,9.43
2023-05-14T04:21:59.514Z,9.61
2023-05-14T04:24:26.030Z,9.82
2023-05-14T04:26:52.537Z,9.98
2023-05-14T04:29:19.105Z,10.12
2023-05-14T04:31:46.424Z,10.24
2023-05-14T04:34:12.944Z,10.37
2023-05-14T04:36:40.188Z,10.49
2023-05-14T04:39:06.965Z,10.61
2023-05-14T04:41:33.427Z,10.73
2023-05-14T04:44:01.847Z,10.88
2023-05-14T04:46:28.654Z,11.02
2023-05-14T04:48:56.392Z,11.12
2023-05-14T04:51:23.392Z,11.22
2023-05-14T04:53:49.949Z,11.39
2023-05-14T04:56:16.400Z,11.52
2023-05-14T04:58:42.965Z,11.64
2023-05-14T05:01:10.047Z,11.76
2023-05-14T05:03:36.612Z,11.91
2023-05-14T05:06:03.471Z,12.01
2023-05-14T05:08:29.921Z,12.18
2023-05-14T05:10:56.439Z,12.33
2023-05-14T05:13:22.911Z,12.48
2023-05-14T05:15:51.210Z,12.56
2023-05-14T05:18:17.634Z,12.66
2023-05-14T05:20:44.070Z,12.75
2023-05-14T05:23:10.631Z,12.89
2023-05-14T05:25:37.110Z,13.10
2023-05-14T05:28:03.710Z,13.28
2023-05-14T05:30:30.337Z,13.42
2023-05-14T05:32:57.676Z,13.53
2023-05-14T05:35:24.224Z,13.60
2023-05-14T05:37:51.044Z,13.67
2023-05-14T05:40:17.752Z,13.67
2023-05-14T05:42:44.288Z,13.73
2023-05-14T05:45:11.115Z,13.81
2023-05-14T05:47:37.584Z,13.94
2023-05-14T05:50:04.613Z,14.16
2023-05-14T05:52:31.261Z,14.40
2023-05-14T05:54:57.744Z,14.57
2023-05-14T05:57:26.251Z,14.82
2023-05-14T05:59:53.222Z,15.08
2023-05-14T06:02:21.505Z,15.27
2023-05-14T06:04:48.473Z,15.36
2023-05-14T06:07:14.958Z,15.52
2023-05-14T06:09:41.471Z,15.75
2023-05-14T06:12:08.382Z,15.92
2023-05-14T06:14:34.875Z,16.15
2023-05-14T06:17:01.657Z,16.63
2023-05-14T06:19:28.359Z,16.87
2023-05-14T06:21:54.850Z,17.10
2023-05-14T06:24:21.354Z,17.52
2023-05-14T06:26:49.294Z,17.97
2023-05-14T06:29:15.994Z,18.43
2023-05-14T06:31:42.779Z,18.85
2023-05-14T06:34:09.296Z,18.55
2023-05-14T06:36:35.857Z,18.21
2023-05-14T06:39:03.460Z,18.06
2023-05-14T06:41:30.025Z,17.93
2023-05-14T06:43:56.817Z,17.98
2023-05-14T06:46:23.372Z,18.10
2023-05-14T06:48:57.972Z,18.40
2023-05-14T06:51:25.903Z,18.92
2023-05-14T06:53:53.902Z,19.40
2023-05-14T06:56:21.927Z,20.30
2023-05-14T06:58:48.891Z,21.98
2023-05-14T07:01:16.856Z,22.92
2023-05-14T07:03:43.507Z,22.88
2023-05-14T07:06:11.897Z,23.61
2023-05-14T07:08:40.238Z,24.38
2023-05-14T07:11:06.670Z,24.73
2023-05-14T07:13:33.187Z,24.87
2023-05-14T07:15:59.631Z,25.05
2023-05-14T07:18:26.240Z,24.49
2023-05-14T07:20:52.768Z,23.36
2023-05-14T07:23:19.996Z,21.98
2023-05-14T07:25:46.668Z,21.15
2023-05-14T07:28:13.154Z,20.72
2023-05-14T07:30:39.802Z,20.50
2023-05-14T07:33:06.307Z,20.40
2023-05-14T07:35:32.959Z,20.36
2023-05-14T07:38:00.641Z,20.32
2023-05-14T07:40:27.374Z,20.39
2023-05-14T07:42:53.870Z,20.50
2023-05-14T07:45:20.346Z,20.67
2023-05-14T07:50:13.481Z,20.78
2023-05-14T07:52:40.214Z,20.92
2023-05-14T07:55:07.239Z,21.05
2023-05-14T07:57:33.758Z,21.01
2023-05-14T08:00:01.664Z,20.88
2023-05-14T08:02:28.626Z,20.86
2023-05-14T08:04:55.552Z,20.93
2023-05-14T08:07:22.257Z,20.88
2023-05-14T08:09:48.680Z,21.16
2023-05-14T08:12:16.037Z,21.55
2023-05-14T08:14:42.609Z,21.87
2023-05-14T08:17:09.119Z,21.94
2023-05-14T08:19:35.732Z,21.85
2023-05-14T08:22:02.285Z,21.70
2023-05-14T08:24:28.782Z,21.83
2023-05-14T08:26:56.030Z,21.84
2023-05-14T08:29:24.683Z,22.13
2023-05-14T08:31:51.315Z,21.69
2023-05-14T08:34:18.110Z,21.68
2023-05-14T08:36:44.727Z,21.65
2023-05-14T08:39:11.540Z,21.63
2023-05-14T08:41:39.690Z,21.40
2023-05-14T08:44:19.934Z,20.88
2023-05-14T08:46:47.614Z,20.78
2023-05-14T08:49:37.159Z,20.49
2023-05-14T08:52:04.217Z,20.23
2023-05-14T08:54:34.767Z,20.26
2023-05-14T08:57:02.910Z,20.32
2023-05-14T08:59:29.594Z,20.23
2023-05-14T09:01:58.651Z,20.23
2023-05-14T09:04:25.375Z,20.34
2023-05-14T09:06:54.077Z,20.34
2023-05-14T09:09:25.059Z,20.30
2023-05-14T09:11:53.131Z,20.37
2023-05-14T09:14:20.787Z,20.61
2023-05-14T09:16:49.925Z,20.96
2023-05-14T09:19:19.483Z,21.29
2023-05-14T09:21:47.872Z,21.26
2023-05-14T09:24:26.158Z,21.28
2023-05-14T09:26:57.622Z,21.56
2023-05-14T09:29:26.112Z,21.52
2023-05-14T09:31:52.810Z,21.34
2023-05-14T09:34:27.116Z,21.38
2023-05-14T09:37:04.193Z,21.44
2023-05-14T09:39:32.213Z,21.49
2023-05-14T09:41:58.899Z,21.71
2023-05-14T09:44:26.435Z,21.84
2023-05-14T09:46:54.004Z,21.74
2023-05-14T09:49:20.964Z,21.52
2023-05-14T09:51:49.068Z,21.37
2023-05-14T09:54:16.023Z,21.17
2023-05-14T09:56:43.602Z,21.19
2023-05-14T09:59:10.422Z,21.03
2023-05-14T10:01:37.963Z,20.80
2023-05-14T10:04:07.413Z,20.74
2023-05-14T10:06:37.622Z,20.95
2023-05-14T10:09:09.910Z,21.26
2023-05-14T10:11:38.772Z,21.52
2023-05-14T10:14:17.959Z,21.69
2023-05-14T10:16:50.791Z,21.84
2023-05-14T10:19:20.060Z,21.81
2023-05-14T10:22:04.051Z,21.78
2023-05-14T10:24:31.674Z,21.66
2023-05-14T10:26:58.832Z,21.67
2023-05-14T10:29:34.189Z,21.78
2023-05-14T10:32:05.125Z,22.12
2023-05-14T10:34:38.542Z,22.31
2023-05-14T10:37:08.095Z,22.52
2023-05-14T10:39:47.742Z,22.54
2023-05-14T10:42:28.989Z,22.94
2023-05-14T10:44:58.935Z,23.21
2023-05-14T10:47:29.353Z,23.18
2023-05-14T10:49:57.778Z,23.52
2023-05-14T10:52:25.000Z,23.78
2023-05-14T10:55:03.581Z,24.04
2023-05-14T10:57:32.226Z,23.63
2023-05-14T11:00:01.111Z,23.53
2023-05-14T11:02:32.649Z,23.25
2023-05-14T11:05:05.199Z,23.04
2023-05-14T11:07:33.771Z,22.93
2023-05-14T11:10:11.601Z,22.89
2023-05-14T11:12:40.714Z,22.64
2023-05-14T11:15:09.463Z,22.64
2023-05-14T11:17:37.872Z,22.82
2023-05-14T11:20:06.499Z,22.74
2023-05-14T11:25:14.540Z,22.34
2023-05-14T11:27:45.262Z,22.37
2023-05-14T11:30:18.924Z,22.32
2023-05-14T11:32:50.565Z,22.53
2023-05-14T11:35:18.258Z,22.44
2023-05-14T11:37:51.957Z,22.37
2023-05-14T11:40:19.364Z,22.21
2023-05-14T11:43:24.321Z,22.21
2023-05-14T11:46:10.879Z,22.06
2023-05-14T11:48:37.525Z,22.01
2023-05-14T11:51:05.291Z,22.06
2023-05-14T11:53:32.445Z,22.28
2023-05-14T11:55:59.289Z,22.59
2023-05-14T11:58:26.506Z,22.79
2023-05-14T12:00:55.297Z,22.68
2023-05-14T12:03:26.660Z,22.50
2023-05-14T12:06:01.624Z,22.06
2023-05-14T12:08:31.802Z,22.31
2023-05-14T12:11:00.256Z,22.39
2023-05-14T12:13:28.243Z,22.40
2023-05-14T12:16:00.296Z,22.38
2023-05-14T12:18:31.453Z,22.63
2023-05-14T12:21:05.953Z,23.09
2023-05-14T12:23:33.014Z,23.44
2023-05-14T12:28:30.511Z,23.67
2023-05-14T12:30:57.873Z,23.63
2023-05-14T12:33:26.441Z,23.59
2023-05-14T12:36:17.502Z,23.45
2023-05-14T12:38:47.657Z,23.26
2023-05-14T12:41:14.132Z,23.32
2023-05-14T12:43:43.645Z,23.34
2023-05-14T12:46:10.749Z,23.21
2023-05-14T12:48:37.326Z,22.95
2023-05-14T12:51:03.962Z,22.93
2023-05-14T12:53:30.490Z,22.71
2023-05-14T12:55:57.051Z,22.73
2023-05-14T12:58:23.530Z,22.63
2023-05-14T13:00:50.116Z,22.51
2023-05-14T13:03:16.778Z,22.55
2023-05-14T13:05:43.483Z,22.39
2023-05-14T13:08:10.183Z,22.09
2023-05-14T13:10:40.387Z,22.01
2023-05-14T13:13:07.022Z,21.97
2023-05-14T13:15:33.876Z,21.85
2023-05-14T13:18:00.757Z,21.85
2023-05-14T13:20:27.781Z,21.93
2023-05-14T13:22:54.324Z,21.97
2023-05-14T13:25:20.995Z,22.12
2023-05-14T13:27:50.697Z,22.29
2023-05-14T13:30:18.397Z,22.57
2023-05-14T13:32:45.302Z,22.95
2023-05-14T13:35:12.814Z,23.21
2023-05-14T13:37:39.482Z,23.48
2023-05-14T13:40:09.453Z,23.38
2023-05-14T13:42:37.045Z,23.51
2023-05-14T13:45:04.149Z,23.55
2023-05-14T13:47:31.265Z,23.41
2023-05-14T13:49:57.773Z,23.39
2023-05-14T13:52:24.346Z,23.25
2023-05-14T13:54:53.425Z,23.06
2023-05-14T13:57:20.183Z,22.91
2023-05-14T13:59:49.977Z,22.54
2023-05-14T14:02:16.963Z,22.10
2023-05-14T14:04:43.609Z,21.97
2023-05-14T14:07:10.281Z,22.01
2023-05-14T14:09:37.017Z,22.20
2023-05-14T14:12:04.689Z,22.57
2023-05-14T14:14:32.510Z,22.82
2023-05-14T14:16:58.974Z,22.53
2023-05-14T14:19:25.626Z,22.69
2023-05-14T14:21:52.167Z,22.71
2023-05-14T14:24:18.612Z,22.73
2023-05-14T14:26:45.300Z,22.47
2023-05-14T14:29:11.951Z,22.57
2023-05-14T14:31:38.585Z,22.59
2023-05-14T14:34:05.172Z,22.47
2023-05-14T14:36:31.731Z,22.33
2023-05-14T14:38:58.350Z,22.13
2023-05-14T14:41:24.859Z,21.88
2023-05-14T14:43:51.391Z,21.70
2023-05-14T14:46:18.121Z,21.79
2023-05-14T14:48:45.064Z,22.04
2023-05-14T14:51:11.513Z,22.11
2023-05-14T14:53:38.105Z,22.17
2023-05-14T14:56:05.439Z,22.13
2023-05-14T14:58:34.928Z,22.08
2023-05-14T15:01:01.722Z,21.83
2023-05-14T15:03:29.010Z,21.79
2023-05-14T15:05:55.861Z,21.60
2023-05-14T15:08:30.117Z,21.48
2023-05-14T15:10:57.460Z,21.43
2023-05-14T15:13:24.645Z,21.39
2023-05-14T15:15:52.549Z,21.33
2023-05-14T15:18:19.253Z,21.31
2023-05-14T15:20:46.418Z,21.34
2023-05-14T15:23:13.208Z,21.48
2023-05-14T15:25:39.990Z,21.57
2023-05-14T15:28:07.666Z,21.53
2023-05-14T15:30:34.739Z,21.47
2023-05-14T15:33:01.488Z,21.37
2023-05-14T15:35:28.027Z,21.27
2023-05-14T15:37:56.035Z,20.92
2023-05-14T15:40:23.053Z,20.85
2023-05-14T15:42:49.856Z,20.77
2023-05-14T15:45:16.401Z,20.55
2023-05-14T15:47:45.086Z,20.48
2023-05-14T15:50:11.906Z,20.45
2023-05-14T15:52:39.422Z,20.37
2023-05-14T15:55:06.514Z,20.26
2023-05-14T15:57:33.333Z,20.22
2023-05-14T15:59:59.826Z,20.20
2023-05-14T16:02:30.354Z,20.25
2023-05-14T16:04:57.188Z,20.40
2023-05-14T16:07:23.756Z,20.74
2023-05-14T16:09:50.896Z,20.89
2023-05-14T16:12:17.486Z,21.05
2023-05-14T16:14:45.303Z,21.15
2023-05-14T16:17:14.702Z,21.26
2023-05-14T16:19:41.616Z,21.21
2023-05-14T16:22:08.328Z,21.27
2023-05-14T16:24:34.951Z,21.38
2023-05-14T16:27:01.481Z,21.22
2023-05-14T16:29:28.054Z,21.07
2023-05-14T16:31:54.959Z,20.97
2023-05-14T16:34:21.520Z,20.89
2023-05-14T16:36:48.214Z,21.03
2023-05-14T16:39:14.987Z,21.24
2023-05-14T16:41:41.574Z,21.43
2023-05-14T16:44:08.352Z,21.61
2023-05-14T16:46:38.348Z,21.82
2023-05-14T16:49:05.476Z,21.70
2023-05-14T16:51:32.063Z,21.71
2023-05-14T16:53:58.604Z,21.72
2023-05-14T16:56:25.247Z,21.80
2023-05-14T16:58:51.863Z,21.65
2023-05-14T17:01:19.319Z,21.41
2023-05-14T17:03:46.183Z,21.17
2023-05-14T17:06:13.024Z,20.99
2023-05-14T17:08:39.569Z,20.70
2023-05-14T17:11:06.228Z,20.60
2023-05-14T17:13:33.191Z,20.47
2023-05-14T17:16:01.250Z,20.44
2023-05-14T17:18:28.442Z,20.28
2023-05-14T17:20:55.023Z,20.11
2023-05-14T17:23:21.714Z,20.02
2023-05-14T17:25:48.296Z,19.92
2023-05-14T17:28:14.928Z,19.82
2023-05-14T17:30:41.506Z,19.68
2023-05-14T17:33:08.324Z,19.57
2023-05-14T17:35:36.255Z,19.48
2023-05-14T17:38:03.419Z,19.38
2023-05-14T17:40:29.955Z,19.29
2023-05-14T17:42:56.503Z,19.22
2023-05-14T17:45:23.309Z,19.14
2023-05-14T17:47:51.381Z,19.10
2023-05-14T17:50:18.739Z,19.08
2023-05-14T17:52:46.117Z,19.09
2023-05-14T17:55:13.929Z,19.09
2023-05-14T17:57:42.082Z,19.10
2023-05-14T18:00:09.037Z,19.06
2023-05-14T18:02:35.763Z,19.05
2023-05-14T18:05:03.064Z,19.16
2023-05-14T18:07:30.652Z,19.46
2023-05-14T18:09:57.820Z,19.81
2023-05-14T18:12:27.654Z,20.14
2023-05-14T18:14:54.341Z,20.30
2023-05-14T18:17:21.265Z,20.36
2023-05-14T18:19:48.161Z,20.30
2023-05-14T18:22:15.950Z,20.03
2023-05-14T18:24:45.403Z,19.57
2023-05-14T18:27:11.992Z,19.17
2023-05-14T18:29:38.641Z,18.87
2023-05-14T18:32:05.802Z,18.60
2023-05-14T18:34:32.613Z,18.38
2023-05-14T18:36:59.830Z,18.18
2023-05-14T18:39:26.538Z,18.01
2023-05-14T18:41:53.305Z,17.87
2023-05-14T18:44:20.151Z,17.68
2023-05-14T18:46:46.900Z,17.50
2023-05-14T18:49:13.550Z,17.33
2023-05-14T18:51:40.276Z,17.19
2023-05-14T18:54:06.813Z,17.07
2023-05-14T18:56:45.523Z,16.99
2023-05-14T18:59:13.991Z,16.86
2023-05-14T19:01:40.675Z,16.77
2023-05-14T19:04:08.579Z,16.68
2023-05-14T19:06:36.320Z,16.61
2023-05-14T19:09:03.056Z,16.53
2023-05-14T19:11:29.647Z,16.47
2023-05-14T19:13:56.374Z,16.42
2023-05-14T19:16:23.162Z,16.35
2023-05-14T19:18:50.559Z,16.29
2023-05-14T19:21:17.168Z,16.22
2023-05-14T19:23:43.772Z,16.19
2023-05-14T19:26:10.503Z,16.15
2023-05-14T19:28:40.383Z,16.12
2023-05-14T19:31:07.138Z,16.07
2023-05-14T19:33:40.372Z,16.03
2023-05-14T19:36:10.110Z,15.98
2023-05-14T19:38:37.533Z,15.93
2023-05-14T19:41:04.153Z,15.83
2023-05-14T19:43:30.676Z,15.76
2023-05-14T19:45:57.788Z,15.70
2023-05-14T19:48:26.594Z,15.67
2023-05-14T19:51:07.659Z,15.61
2023-05-14T19:53:34.598Z,15.57
2023-05-14T19:56:02.355Z,15.54
2023-05-14T19:58:29.055Z,15.51
2023-05-14T20:00:57.572Z,15.44
2023-05-14T20:03:27.904Z,15.36
2023-05-14T20:05:55.315Z,15.29
2023-05-14T20:08:23.151Z,15.28
2023-05-14T20:10:49.830Z,15.30
2023-05-14T20:13:17.014Z,15.30
2023-05-14T20:15:43.540Z,15.27
2023-05-14T20:18:10.088Z,15.27
2023-05-14T20:20:36.792Z,15.25
2023-05-14T20:23:03.606Z,15.26
2023-05-14T20:25:32.823Z,15.22
2023-05-14T20:28:02.420Z,15.22
2023-05-14T20:30:29.107Z,15.17
2023-05-14T20:32:55.835Z,15.15
2023-05-14T20:35:22.564Z,15.14
2023-05-14T20:37:49.879Z,15.13
2023-05-14T20:40:16.606Z,15.11
2023-05-14T20:42:43.264Z,15.11
2023-05-14T20:45:10.893Z,15.09
2023-05-14T20:47:37.782Z,15.05
2023-05-14T20:50:04.774Z,15.05
2023-05-14T20:52:31.785Z,15.06
2023-05-14T20:55:00.796Z,15.06
2023-05-14T20:57:28.404Z,15.05
2023-05-14T20:59:55.060Z,15.04
2023-05-14T21:02:21.642Z,15.04
2023-05-14T21:04:48.366Z,15.01
2023-05-14T21:07:15.170Z,14.99
2023-05-14T21:09:42.032Z,15.00
2023-05-14T21:12:09.094Z,15.02
2023-05-14T21:14:35.573Z,15.06
2023-05-14T21:17:02.175Z,15.07
2023-05-14T21:19:28.732Z,15.08
2023-05-14T21:21:55.220Z,15.06
2023-05-14T21:24:21.825Z,15.03
2023-05-14T21:26:48.521Z,14.99
2023-05-14T21:29:14.974Z,14.95
2023-05-14T21:31:41.895Z,14.92
2023-05-14T21:34:08.669Z,14.91
2023-05-14T21:36:35.800Z,14.90
2023-05-14T21:39:02.362Z,14.89
2023-05-14T21:41:30.387Z,14.86
2023-05-14T21:43:56.950Z,14.83
2023-05-14T21:46:23.683Z,14.80
2023-05-14T21:48:50.352Z,14.79
2023-05-14T21:51:17.098Z,14.78
2023-05-14T21:53:43.664Z,14.76
2023-05-14T21:56:10.330Z,14.71
2023-05-14T21:58:36.937Z,14.68
2023-05-14T22:01:03.568Z,14.69
2023-05-14T22:03:30.118Z,14.69
2023-05-14T22:05:57.150Z,14.72
2023-05-14T22:08:23.949Z,14.73
2023-05-14T22:10:50.726Z,14.75
2023-05-14T22:13:17.399Z,14.73
2023-05-14T22:15:44.480Z,14.71
2023-05-14T22:18:13.105Z,14.64
2023-05-14T22:20:40.071Z,14.54
2023-05-14T22:23:07.166Z,14.51
2023-05-14T22:25:34.054Z,14.51
2023-05-14T22:28:00.757Z,14.51
2023-05-14T22:30:30.053Z,14.53
2023-05-14T22:32:56.610Z,14.53
2023-05-14T22:35:23.200Z,14.50
2023-05-14T22:37:49.733Z,14.49
2023-05-14T22:40:16.422Z,14.47
2023-05-14T22:42:43.093Z,14.42
2023-05-14T22:45:10.097Z,14.43
2023-05-14T22:47:37.969Z,14.45
2023-05-14T22:50:11.140Z,14.44
2023-05-14T22:52:40.189Z,14.47
2023-05-14T22:55:07.662Z,14.48
2023-05-14T22:57:34.687Z,14.47
2023-05-14T23:00:01.364Z,14.47
2023-05-14T23:02:28.031Z,14.47
2023-05-14T23:04:54.628Z,14.47
2023-05-14T23:07:22.234Z,14.47
2023-05-14T23:09:48.705Z,14.45
2023-05-14T23:12:15.216Z,14.42
2023-05-14T23:14:42.235Z,14.40
2023-05-14T23:17:08.793Z,14.37
2023-05-14T23:19:35.587Z,14.33
2023-05-14T23:22:02.141Z,14.31
2023-05-14T23:24:28.752Z,14.29
2023-05-14T23:26:55.846Z,14.28
2023-05-14T23:29:22.401Z,14.27
2023-05-14T23:31:48.961Z,14.28
2023-05-14T23:34:16.098Z,14.31
2023-05-14T23:36:42.688Z,14.33
2023-05-14T23:39:09.348Z,14.36
2023-05-14T23:41:36.330Z,14.33
2023-05-14T23:44:03.897Z,14.33
2023-05-14T23:46:30.583Z,14.29
2023-05-14T23:48:57.206Z,14.27
2023-05-14T23:51:24.702Z,14.29
2023-05-14T23:53:56.146Z,14.26
2023-05-14T23:56:23.306Z,14.21
2023-05-14T23:58:49.782Z,14.22
